Time;durP1;ratioP1;P1;durP2;ratioP2;P2;SDS_P1;SDS_P2;PMS_P1;PMS_P2;Temp;Humidity;BMP_temperature;BMP_pressure;BME280_temperature;BME280_humidity;BME280_pressure;Samples;Min_cycle;Max_cycle;Signal;HPM_P1;HPM_P2
2021/01/30 00:00:58;;;;;;;29.93;19.90;;;;;;;-1.66;77.72;98614.33;103051;1110;64149;-82
2021/01/30 00:03:05;;;;;;;28.53;18.43;;;;;;;-1.68;77.79;98609.21;103102;1110;83429;-66
2021/01/30 00:05:13;;;;;;;28.93;18.93;;;;;;;-1.65;77.74;98610.71;103051;1112;73283;-69
2021/01/30 00:07:18;;;;;;;31.17;20.73;;;;;;;-1.59;77.73;98615.39;103055;1110;84861;-65
2021/01/30 00:09:26;;;;;;;31.53;20.83;;;;;;;-1.60;77.56;98609.25;103028;1111;79338;-68
2021/01/30 00:11:30;;;;;;;30.07;19.50;;;;;;;-1.58;77.60;98609.09;103039;1110;64207;-65
2021/01/30 00:13:35;;;;;;;30.30;21.03;;;;;;;-1.61;78.20;98607.59;103033;1111;83316;-66
2021/01/30 00:15:40;;;;;;;28.83;19.67;;;;;;;-1.70;77.79;98600.57;103064;1110;73148;-61
2021/01/30 00:17:45;;;;;;;30.47;20.17;;;;;;;-1.70;78.30;98595.28;103084;1112;84882;-63
2021/01/30 00:19:52;;;;;;;32.10;21.17;;;;;;;-1.72;77.98;98601.72;103016;1109;79509;-66
2021/01/30 00:22:00;;;;;;;36.30;21.05;;;;;;;-1.68;78.22;98592.49;103016;1110;64172;-67
2021/01/30 00:24:07;;;;;;;30.97;21.23;;;;;;;-1.63;78.14;98598.14;103050;1110;83127;-66
2021/01/30 00:26:12;;;;;;;34.05;21.35;;;;;;;-1.60;78.22;98603.13;103039;1110;70992;-66
2021/01/30 00:28:17;;;;;;;34.47;21.73;;;;;;;-1.58;77.84;98601.14;103064;1110;83928;-65
2021/01/30 00:30:26;;;;;;;31.37;21.23;;;;;;;-1.61;78.11;98593.52;102996;1112;77807;-66
2021/01/30 00:32:34;;;;;;;33.50;21.00;;;;;;;-1.60;77.81;98588.08;103080;1110;64297;-70
2021/01/30 00:34:42;;;;;;;32.47;20.83;;;;;;;-1.61;77.73;98590.87;103088;1110;82931;-70
2021/01/30 00:36:55;;;;;;;32.43;21.53;;;;;;;-1.56;78.05;98593.87;103095;1110;71824;-70
2021/01/30 00:39:00;;;;;;;30.53;20.78;;;;;;;-1.63;78.23;98596.33;103074;1112;84893;-66
2021/01/30 00:41:08;;;;;;;33.43;21.40;;;;;;;-1.59;77.73;98588.91;103025;1112;78718;-65
2021/01/30 00:43:13;;;;;;;35.10;22.35;;;;;;;-1.62;77.91;98587.38;103038;1112;64281;-70
2021/01/30 00:45:25;;;;;;;35.77;21.53;;;;;;;-1.65;77.86;98602.77;103022;1112;81689;-69
2021/01/30 00:47:30;;;;;;;33.93;21.53;;;;;;;-1.61;78.05;98598.80;103077;1110;71900;-69
2021/01/30 00:49:35;;;;;;;35.53;22.37;;;;;;;-1.60;77.78;98593.38;103057;1110;86184;-68
2021/01/30 00:51:40;;;;;;;34.47;23.17;;;;;;;-1.59;77.99;98592.37;103003;1112;79306;-69
2021/01/30 00:53:45;;;;;;;36.07;22.63;;;;;;;-1.61;77.74;98593.52;103021;1110;64376;-67
2021/01/30 00:55:50;;;;;;;35.80;22.53;;;;;;;-1.67;78.30;98583.55;103008;1110;82703;-65
2021/01/30 00:57:55;;;;;;;36.33;23.33;;;;;;;-1.69;77.97;98585.52;103006;1109;72481;-64
2021/01/30 00:59:59;;;;;;;37.63;22.87;;;;;;;-1.68;77.98;98580.09;102945;1111;84167;-64
2021/01/30 01:02:04;;;;;;;35.83;22.70;;;;;;;-1.73;78.09;98581.55;103025;1112;77631;-64
2021/01/30 01:04:09;;;;;;;36.73;23.47;;;;;;;-1.74;78.17;98586.00;103113;1112;64207;-65
2021/01/30 01:06:14;;;;;;;37.90;22.03;;;;;;;-1.74;78.16;98580.71;103011;1110;81855;-66
2021/01/30 01:08:18;;;;;;;37.43;23.87;;;;;;;-1.77;78.49;98580.19;102980;1112;72298;-65
2021/01/30 01:10:25;;;;;;;39.00;22.50;;;;;;;-1.69;78.26;98577.59;103010;1112;84282;-65
2021/01/30 01:12:29;;;;;;;37.83;24.23;;;;;;;-1.67;78.31;98588.84;102993;1112;77568;-64
2021/01/30 01:14:41;;;;;;;38.23;23.57;;;;;;;-1.68;78.31;98587.20;103012;1110;64165;-65
2021/01/30 01:16:46;;;;;;;39.87;21.83;;;;;;;-1.69;78.61;98586.36;102902;1110;82682;-65
2021/01/30 01:18:51;;;;;;;34.87;21.80;;;;;;;-1.72;78.52;98586.67;104136;1110;72239;-65
2021/01/30 01:20:57;;;;;;;35.93;22.63;;;;;;;-1.64;78.70;98583.23;103020;1110;84893;-65
2021/01/30 01:23:02;;;;;;;39.65;22.95;;;;;;;-1.65;78.51;98590.38;103030;1110;79910;-71
2021/01/30 01:25:12;;;;;;;33.93;22.33;;;;;;;-1.59;78.83;98586.27;103014;1110;64165;-73
2021/01/30 01:27:17;;;;;;;41.07;23.27;;;;;;;-1.56;78.33;98585.92;103044;1110;81827;-71
2021/01/30 01:29:24;;;;;;;34.90;22.67;;;;;;;-1.57;78.29;98584.28;103078;1110;71894;-72
2021/01/30 01:31:29;;;;;;;37.90;22.77;;;;;;;-1.55;78.85;98585.78;103054;1110;83313;-72
2021/01/30 01:33:34;;;;;;;37.40;23.07;;;;;;;-1.63;78.76;98593.69;103016;1110;78786;-72
2021/01/30 01:35:42;;;;;;;37.77;22.80;;;;;;;-1.64;78.26;98578.78;103010;1110;64197;-72
2021/01/30 01:37:47;;;;;;;36.57;23.67;;;;;;;-1.68;78.50;98571.31;103036;1110;81376;-65
2021/01/30 01:39:52;;;;;;;38.97;23.33;;;;;;;-1.71;78.50;98572.46;103042;1111;70804;-66
2021/01/30 01:42:12;;;;;;;61.20;29.27;;;;;;;-1.70;78.47;98571.45;103026;1110;85029;-67
2021/01/30 01:44:20;;;;;;;53.97;28.07;;;;;;;-1.61;78.34;98582.92;103044;1110;78499;-67
2021/01/30 01:46:30;;;;;;;67.67;32.63;;;;;;;-1.56;79.01;98580.63;103011;1111;64127;-66
2021/01/30 01:48:39;;;;;;;64.70;32.87;;;;;;;-1.52;78.53;98577.53;103009;1112;82907;-69
2021/01/30 01:50:48;;;;;;;80.37;37.67;;;;;;;-1.53;78.72;98580.32;103016;1112;72401;-69
2021/01/30 01:52:54;;;;;;;54.20;30.03;;;;;;;-1.55;78.92;98582.30;103056;1111;85986;-63
2021/01/30 01:55:06;;;;;;;53.33;30.17;;;;;;;-1.57;78.93;98584.28;103010;1109;78743;-63
2021/01/30 01:57:15;;;;;;;44.40;26.60;;;;;;;-1.54;78.72;98583.97;103018;1112;64210;-63
2021/01/30 01:59:20;;;;;;;45.80;27.53;;;;;;;-1.57;79.05;98585.13;103024;1112;82665;-62
2021/01/30 02:01:25;;;;;;;43.60;26.43;;;;;;;-1.58;78.78;98582.61;103019;1112;72530;-64
2021/01/30 02:03:32;;;;;;;46.95;28.90;;;;;;;-1.60;78.97;98588.08;103049;1112;84890;-69
2021/01/30 02:05:40;;;;;;;47.33;27.77;;;;;;;-1.61;78.95;98589.05;103008;1112;78699;-69
2021/01/30 02:07:47;;;;;;;43.15;27.05;;;;;;;-1.63;79.48;98584.91;103029;1109;64191;-69
2021/01/30 02:09:54;;;;;;;47.25;27.35;;;;;;;-1.64;79.28;98576.13;103044;1112;83658;-69
2021/01/30 02:12:06;;;;;;;43.50;28.20;;;;;;;-1.68;79.32;98579.26;103012;1112;72189;-67
2021/01/30 02:14:12;;;;;;;43.27;27.93;;;;;;;-1.67;79.11;98572.95;103026;1111;84750;-69
2021/01/30 02:16:33;;;;;;;44.60;28.15;;;;;;;-1.67;79.42;98573.80;103014;1112;78252;-70
2021/01/30 02:18:52;;;;;;;49.65;27.50;;;;;;;-1.66;79.38;98575.47;103082;1112;64318;-68
2021/01/30 02:22:08;;;;;;;47.33;28.20;;;;;;;-1.69;79.35;98569.64;103037;1112;84214;-69
2021/01/30 02:25:11;;;;;;;48.87;29.00;;;;;;;-1.72;79.37;98580.55;102766;1113;72057;-63
2021/01/30 02:27:46;;;;;;;47.90;28.50;;;;;;;-1.80;79.62;98579.52;102815;1110;85157;-62
2021/01/30 02:30:37;;;;;;;50.07;27.37;;;;;;;-1.80;79.99;98578.69;102920;1112;77817;-62
2021/01/30 02:33:14;;;;;;;46.47;29.07;;;;;;;-1.79;79.64;98573.22;102965;1112;64217;-63
2021/01/30 02:35:37;;;;;;;45.63;27.87;;;;;;;-1.73;80.16;98581.55;102998;1112;83538;-64
2021/01/30 02:37:52;;;;;;;47.43;27.83;;;;;;;-1.66;79.63;98580.76;103007;1112;71767;-66
2021/01/30 02:40:08;;;;;;;46.10;27.70;;;;;;;-1.69;79.55;98564.35;103001;1112;85244;-64
2021/01/30 02:42:18;;;;;;;46.43;28.63;;;;;;;-1.71;79.99;98571.63;102982;1112;79514;-68
2021/01/30 02:44:25;;;;;;;46.00;29.13;;;;;;;-1.69;79.91;98557.25;103030;1112;64168;-76
2021/01/30 02:46:35;;;;;;;43.30;27.47;;;;;;;-1.67;79.66;98567.66;103025;1112;82120;-71
2021/01/30 02:48:47;;;;;;;47.07;28.87;;;;;;;-1.74;79.67;98567.48;103057;1112;71046;-65
2021/01/30 02:50:57;;;;;;;49.00;27.93;;;;;;;-1.69;79.85;98567.00;103045;1112;85249;-68
2021/01/30 02:53:06;;;;;;;43.60;27.60;;;;;;;-1.77;80.01;98557.20;102998;1112;76828;-58
2021/01/30 02:55:16;;;;;;;47.53;27.87;;;;;;;-1.75;80.30;98559.68;103017;1112;64239;-65
2021/01/30 02:57:24;;;;;;;42.73;27.27;;;;;;;-1.68;80.33;98563.38;103006;1112;82738;-68
2021/01/30 02:59:30;;;;;;;44.67;28.33;;;;;;;-1.71;79.95;98568.98;103035;1112;72572;-69
2021/01/30 03:01:37;;;;;;;41.53;27.07;;;;;;;-1.73;80.02;98555.08;103006;1109;83930;-69
2021/01/30 03:03:43;;;;;;;44.55;27.45;;;;;;;-1.76;80.26;98558.88;103074;1112;79382;-65
2021/01/30 03:05:48;;;;;;;43.35;28.10;;;;;;;-1.76;80.02;98564.17;103001;1111;64213;-69
2021/01/30 03:08:09;;;;;;;45.83;28.30;;;;;;;-1.74;80.08;98571.94;103031;1112;82188;-66
2021/01/30 03:10:25;;;;;;;45.53;27.57;;;;;;;-1.78;80.19;98568.77;103073;1111;71146;-63
2021/01/30 03:12:42;;;;;;;44.93;27.77;;;;;;;-1.77;80.25;98572.25;103028;1112;85317;-70
2021/01/30 03:14:56;;;;;;;43.80;26.80;;;;;;;-1.80;80.65;98570.75;103048;1112;78361;-70
2021/01/30 03:17:03;;;;;;;46.03;28.30;;;;;;;-1.77;80.12;98569.60;103036;1112;64389;-68
2021/01/30 03:19:12;;;;;;;43.03;26.83;;;;;;;-1.75;80.27;98578.20;103033;1112;84377;-71
2021/01/30 03:21:18;;;;;;;46.35;28.75;;;;;;;-1.77;80.49;98561.66;103047;1112;72813;-71
2021/01/30 03:23:26;;;;;;;46.07;27.07;;;;;;;-1.75;80.11;98564.97;103066;1112;84935;-70
2021/01/30 03:25:31;;;;;;;44.40;28.47;;;;;;;-1.76;80.36;98563.33;103012;1112;78000;-71
2021/01/30 03:27:39;;;;;;;44.97;27.33;;;;;;;-1.79;80.20;98569.77;103018;1112;64230;-61
2021/01/30 03:29:43;;;;;;;43.30;27.73;;;;;;;-1.77;80.30;98569.60;103018;1109;83625;-62
2021/01/30 03:31:49;;;;;;;45.40;27.00;;;;;;;-1.72;80.68;98560.20;102996;1112;72943;-62
2021/01/30 03:33:54;;;;;;;45.67;28.37;;;;;;;-1.79;80.86;98556.54;103068;1112;83644;-71
2021/01/30 03:35:58;;;;;;;40.27;25.43;;;;;;;-1.81;80.57;98566.42;102994;1112;79170;-71
2021/01/30 03:38:04;;;;;;;45.80;27.60;;;;;;;-1.85;80.52;98562.45;103046;1112;62332;-71
2021/01/30 03:40:12;;;;;;;44.53;26.13;;;;;;;-1.85;80.81;98563.28;102997;1112;83811;-70
2021/01/30 03:42:18;;;;;;;42.63;27.20;;;;;;;-1.88;81.04;98566.24;103065;1112;71721;-60
2021/01/30 03:44:23;;;;;;;47.00;27.05;;;;;;;-1.85;80.86;98571.23;103060;1112;86098;-60
2021/01/30 03:46:27;;;;;;;45.40;28.27;;;;;;;-1.84;81.04;98569.41;102984;1112;78085;-63
2021/01/30 03:48:32;;;;;;;45.03;27.70;;;;;;;-1.86;81.12;98558.97;103008;1112;64162;-71
2021/01/30 03:50:37;;;;;;;45.43;27.93;;;;;;;-1.80;80.77;98553.06;103002;1112;82862;-70
2021/01/30 03:52:44;;;;;;;48.67;27.53;;;;;;;-1.75;80.55;98557.03;103076;1112;71341;-70
2021/01/30 03:54:49;;;;;;;41.47;27.17;;;;;;;-1.78;80.71;98550.24;103025;1112;85043;-71
2021/01/30 03:57:00;;;;;;;51.00;29.63;;;;;;;-1.80;81.05;98546.93;103000;1112;77678;-68
2021/01/30 03:59:08;;;;;;;43.40;27.53;;;;;;;-1.85;80.94;98544.77;103053;1112;64140;-69
2021/01/30 04:01:13;;;;;;;44.40;27.93;;;;;;;-1.89;80.79;98545.21;102987;1112;82275;-69
2021/01/30 04:03:17;;;;;;;43.35;27.60;;;;;;;-1.93;81.33;98552.66;103009;1109;71828;-63
2021/01/30 04:05:26;;;;;;;42.45;26.40;;;;;;;-1.94;80.70;98550.98;103030;1109;83630;-61
2021/01/30 04:07:31;;;;;;;45.93;28.67;;;;;;;-1.89;81.18;98559.28;103047;1112;77395;-69
2021/01/30 04:09:35;;;;;;;46.00;28.35;;;;;;;-1.88;80.85;98544.23;103011;1109;64443;-69
2021/01/30 04:11:43;;;;;;;44.90;28.57;;;;;;;-1.90;81.04;98557.64;102997;1111;83123;-69
2021/01/30 04:13:48;;;;;;;44.80;27.80;;;;;;;-1.85;81.15;98552.70;103075;1112;71039;-70
2021/01/30 04:15:53;;;;;;;47.00;28.40;;;;;;;-1.75;80.79;98549.09;102997;1112;86078;-70
2021/01/30 04:17:58;;;;;;;45.83;26.13;;;;;;;-1.74;80.85;98541.02;103018;1110;76976;-70
2021/01/30 04:20:04;;;;;;;41.13;26.83;;;;;;;-1.83;80.66;98542.78;103071;1112;64412;-70
2021/01/30 04:22:09;;;;;;;44.17;25.70;;;;;;;-1.82;81.11;98543.62;103051;1112;82972;-61
2021/01/30 04:24:13;;;;;;;40.77;26.07;;;;;;;-1.81;80.62;98543.45;103037;1112;71828;-62
2021/01/30 04:26:20;;;;;;;39.30;25.15;;;;;;;-1.83;81.17;98542.78;103004;1112;85903;-61
2021/01/30 04:28:25;;;;;;;40.17;25.37;;;;;;;-1.82;80.70;98540.97;103013;1112;78504;-70
2021/01/30 04:30:32;;;;;;;39.23;24.67;;;;;;;-1.81;81.31;98539.97;103004;1112;64159;-69
2021/01/30 04:32:36;;;;;;;41.73;25.60;;;;;;;-1.79;80.87;98543.30;103078;1112;83565;-69
2021/01/30 04:34:42;;;;;;;43.90;26.25;;;;;;;-1.84;80.74;98535.82;103026;1109;70974;-71
2021/01/30 04:36:46;;;;;;;39.70;25.47;;;;;;;-1.86;80.57;98543.09;103008;1112;85154;-71
2021/01/30 04:38:51;;;;;;;38.83;24.50;;;;;;;-1.83;80.48;98537.48;103081;1112;79227;-72
2021/01/30 04:41:09;;;;;;;40.00;24.15;;;;;;;-1.89;81.11;98534.63;103054;1112;64168;-71
2021/01/30 04:43:22;;;;;;;40.03;24.97;;;;;;;-1.91;81.17;98524.22;102990;1111;83126;-64
2021/01/30 04:45:38;;;;;;;39.70;24.05;;;;;;;-1.91;80.88;98531.31;103046;1112;72495;-63
2021/01/30 04:47:51;;;;;;;40.47;25.77;;;;;;;-1.93;81.02;98528.01;103085;1111;84884;-63
2021/01/30 04:50:08;;;;;;;39.90;24.48;;;;;;;-1.96;80.74;98526.51;103027;1112;78698;-63
2021/01/30 04:52:33;;;;;;;38.77;25.17;;;;;;;-1.95;81.51;98522.86;103060;1112;64210;-71
2021/01/30 04:55:00;;;;;;;38.47;24.80;;;;;;;-1.97;81.36;98524.00;103048;1112;82063;-71
2021/01/30 04:57:23;;;;;;;38.30;25.20;;;;;;;-1.93;80.79;98520.91;103019;1112;71648;-63
2021/01/30 04:59:40;;;;;;;43.10;25.40;;;;;;;-1.92;80.90;98521.70;103038;1112;85282;-63
2021/01/30 05:01:58;;;;;;;38.47;24.17;;;;;;;-1.89;80.89;98522.23;103037;1112;78041;-62
2021/01/30 05:04:15;;;;;;;40.67;25.83;;;;;;;-1.90;81.13;98520.59;103053;1111;64303;-63
2021/01/30 05:06:58;;;;;;;39.17;25.07;;;;;;;-1.90;81.02;98517.11;103015;1112;83130;-60
2021/01/30 05:09:15;;;;;;;37.27;23.83;;;;;;;-1.89;81.39;98510.81;103005;1112;73503;-64
2021/01/30 05:11:24;;;;;;;40.73;25.90;;;;;;;-1.95;80.83;98517.56;103024;1112;84661;-63
2021/01/30 05:13:38;;;;;;;40.13;26.43;;;;;;;-1.97;81.20;98513.41;103075;1112;77361;-72
2021/01/30 05:15:53;;;;;;;39.63;26.13;;;;;;;-1.98;81.06;98509.94;103024;1112;64599;-69
2021/01/30 05:18:05;;;;;;;39.53;25.30;;;;;;;-2.01;81.73;98515.57;103032;1112;83019;-70
2021/01/30 05:20:12;;;;;;;41.25;26.55;;;;;;;-2.02;81.59;98511.25;103028;1112;72518;-69
2021/01/30 05:22:18;;;;;;;42.60;25.93;;;;;;;-2.06;81.38;98514.38;103022;1112;83829;-68
2021/01/30 05:24:27;;;;;;;41.80;26.93;;;;;;;-2.13;81.53;98519.45;103012;1112;79824;-68
2021/01/30 05:26:47;;;;;;;38.45;25.20;;;;;;;-2.13;81.38;98519.45;103016;1109;64175;-71
2021/01/30 05:29:07;;;;;;;42.60;27.40;;;;;;;-2.13;81.53;98519.45;103024;1112;83030;-69
2021/01/30 05:31:25;;;;;;;38.30;23.73;;;;;;;-2.07;81.74;98512.70;103029;1112;71854;-69
2021/01/30 05:33:59;;;;;;;41.03;26.43;;;;;;;-2.00;81.56;98513.73;103023;1111;85614;-71
2021/01/30 05:36:11;;;;;;;42.87;24.70;;;;;;;-2.04;81.66;98512.39;102993;1112;78494;-70
2021/01/30 05:38:37;;;;;;;37.57;24.23;;;;;;;-2.05;81.60;98514.20;103025;1112;64233;-69
2021/01/30 05:40:50;;;;;;;41.77;25.27;;;;;;;-2.05;81.64;98514.20;103031;1112;83271;-70
2021/01/30 05:43:14;;;;;;;41.00;27.03;;;;;;;-2.00;81.22;98513.73;103047;1112;71907;-68
2021/01/30 05:45:35;;;;;;;40.27;25.97;;;;;;;-2.00;81.15;98514.56;103018;1112;85473;-69
2021/01/30 05:47:41;;;;;;;36.93;23.03;;;;;;;-2.05;81.79;98505.44;102963;1112;78776;-65
2021/01/30 05:49:57;;;;;;;42.50;26.30;;;;;;;-2.08;81.18;98498.64;103038;1112;64220;-72
2021/01/30 05:52:13;;;;;;;40.37;25.30;;;;;;;-2.07;81.52;98502.96;103019;1112;82542;-64
2021/01/30 05:54:18;;;;;;;43.10;27.87;;;;;;;-2.06;81.40;98506.44;103073;1112;70842;-62
2021/01/30 05:56:22;;;;;;;39.63;23.87;;;;;;;-2.08;81.87;98501.29;103049;1112;84879;-63
2021/01/30 05:58:28;;;;;;;39.60;24.15;;;;;;;-2.05;81.52;98500.98;103087;1112;77600;-66
2021/01/30 06:00:33;;;;;;;36.95;24.10;;;;;;;-2.07;81.85;98507.42;103026;1112;64306;-62
2021/01/30 06:02:41;;;;;;;40.10;26.43;;;;;;;-2.09;82.08;98510.23;102976;1112;83288;-62
2021/01/30 06:04:47;;;;;;;38.07;24.87;;;;;;;-2.12;81.39;98510.54;103052;1112;72233;-63
2021/01/30 06:06:56;;;;;;;41.40;25.70;;;;;;;-2.12;81.80;98507.06;103040;1110;85505;-60
2021/01/30 06:09:08;;;;;;;42.00;25.67;;;;;;;-2.15;81.44;98507.37;103022;1112;78065;-70
2021/01/30 06:11:17;;;;;;;41.93;26.87;;;;;;;-2.16;81.81;98509.17;103034;1112;64188;-71
2021/01/30 06:13:27;;;;;;;42.47;27.33;;;;;;;-2.14;81.75;98503.75;103003;1112;82153;-69
2021/01/30 06:15:37;;;;;;;41.27;26.80;;;;;;;-2.13;82.03;98510.68;103042;1112;72076;-69
2021/01/30 06:17:42;;;;;;;39.57;25.67;;;;;;;-2.14;81.48;98512.48;103088;1111;84026;-72
2021/01/30 06:20:15;;;;;;;38.40;25.10;;;;;;;-2.13;81.78;98518.61;103021;1112;80222;-69
2021/01/30 06:22:25;;;;;;;39.33;25.27;;;;;;;-2.14;81.65;98504.55;103048;1112;64200;-65
2021/01/30 06:24:33;;;;;;;40.23;25.67;;;;;;;-2.16;81.30;98517.11;103167;1093;81599;-65
2021/01/30 06:26:44;;;;;;;43.00;28.07;;;;;;;-2.17;81.47;98511.98;103051;1112;71711;-64
2021/01/30 06:28:59;;;;;;;48.23;28.60;;;;;;;-2.19;81.84;98514.77;103116;1110;84879;-64
2021/01/30 06:31:23;;;;;;;50.73;31.00;;;;;;;-2.15;81.25;98510.84;102990;1110;78595;-77
2021/01/30 06:33:33;;;;;;;56.83;31.53;;;;;;;-2.18;81.48;98516.45;103040;1110;64303;-72
2021/01/30 06:35:40;;;;;;;49.77;29.63;;;;;;;-2.21;81.78;98516.75;103102;1110;83527;-72
2021/01/30 06:37:48;;;;;;;50.07;29.57;;;;;;;-2.22;81.99;98519.53;103036;1113;71746;-72
2021/01/30 06:40:06;;;;;;;48.27;29.17;;;;;;;-2.17;81.65;98515.44;103015;1110;85299;-63
2021/01/30 06:42:16;;;;;;;46.90;30.05;;;;;;;-2.17;81.71;98512.80;102987;1110;78259;-63
2021/01/30 06:44:26;;;;;;;46.85;29.15;;;;;;;-2.14;81.27;98509.84;103035;1111;64140;-71
2021/01/30 06:46:35;;;;;;;52.93;32.53;;;;;;;-2.09;82.13;98510.23;103038;1112;83388;-69
2021/01/30 06:48:44;;;;;;;52.83;32.33;;;;;;;-2.12;82.12;98502.60;103037;1112;71481;-69
2021/01/30 06:50:49;;;;;;;50.60;30.27;;;;;;;-2.11;81.58;98503.41;103069;1106;85561;-69
2021/01/30 06:52:53;;;;;;;49.80;30.20;;;;;;;-2.09;82.06;98506.75;102991;1113;79706;-68
2021/01/30 06:55:14;;;;;;;53.43;30.83;;;;;;;-2.12;81.98;98505.25;103072;1112;64236;-63
2021/01/30 06:57:27;;;;;;;70.80;36.20;;;;;;;-2.12;81.59;98499.95;103050;1111;81857;-62
2021/01/30 06:59:37;;;;;;;58.25;33.08;;;;;;;-2.09;81.78;98499.66;103044;1112;71334;-68
2021/01/30 07:01:45;;;;;;;65.80;34.03;;;;;;;-2.06;82.02;98514.38;103034;1110;85564;-73
2021/01/30 07:04:17;;;;;;;78.50;38.70;;;;;;;-2.01;82.06;98509.44;102982;1110;78099;-71
2021/01/30 07:06:30;;;;;;;81.47;39.03;;;;;;;-1.99;81.78;98504.81;103030;1106;64146;-70
2021/01/30 07:08:57;;;;;;;88.35;43.00;;;;;;;-1.95;81.79;98506.98;103025;1112;82705;-71
2021/01/30 07:11:30;;;;;;;80.77;40.83;;;;;;;-1.93;82.43;98501.55;103053;1112;72157;-69
2021/01/30 07:13:51;;;;;;;77.37;38.70;;;;;;;-1.91;82.39;98497.76;103048;1112;84200;-69
2021/01/30 07:16:13;;;;;;;72.53;37.67;;;;;;;-1.85;82.40;98502.42;103002;1110;78880;-69
2021/01/30 07:18:32;;;;;;;68.30;36.20;;;;;;;-1.74;81.96;98503.96;103045;1112;64303;-68
2021/01/30 07:20:55;;;;;;;64.47;34.87;;;;;;;-1.70;82.19;98507.94;102976;1106;84112;-64
2021/01/30 07:23:11;;;;;;;68.15;35.90;;;;;;;-1.60;82.36;98507.83;103037;1110;70722;-65
2021/01/30 07:25:26;;;;;;;58.83;32.87;;;;;;;-1.55;82.13;98508.17;103072;1112;86277;-67
2021/01/30 07:27:40;;;;;;;58.23;32.77;;;;;;;-1.54;81.90;98509.84;103042;1112;79079;-65
2021/01/30 07:29:53;;;;;;;60.10;34.75;;;;;;;-1.55;81.81;98493.13;103004;1112;64143;-64
2021/01/30 07:32:05;;;;;;;;;;;;;;;-1.49;82.30;98502.25;103080;1110;82705;-63
2021/01/30 07:34:18;;;;;;;46.50;30.27;;;;;;;-1.44;82.13;98500.78;103021;1112;72430;-63
2021/01/30 07:36:30;;;;;;;48.03;28.50;;;;;;;-1.44;81.82;98505.24;103055;1112;84645;-63
2021/01/30 07:38:45;;;;;;;48.43;30.47;;;;;;;-1.41;81.66;98503.11;102976;1112;78763;-63
2021/01/30 07:40:57;;;;;;;47.33;28.57;;;;;;;-1.39;81.96;98498.47;103055;1112;64022;-62
2021/01/30 07:43:10;;;;;;;46.90;29.30;;;;;;;-1.36;82.00;98495.52;102997;1112;82619;-62
2021/01/30 07:45:21;;;;;;;45.20;27.95;;;;;;;-1.36;81.45;98499.97;103051;1112;71595;-68
2021/01/30 07:47:36;;;;;;;44.20;28.70;;;;;;;-1.33;81.47;98499.66;103037;1112;85188;-67
2021/01/30 07:49:51;;;;;;;46.70;29.35;;;;;;;-1.34;81.95;98500.63;103077;1110;77994;-63
2021/01/30 07:52:03;;;;;;;43.63;28.20;;;;;;;-1.34;81.99;98498.81;103006;1112;64214;-63
2021/01/30 07:54:09;;;;;;;45.55;28.90;;;;;;;-1.35;81.69;98499.00;103039;1112;82616;-63
2021/01/30 07:56:32;;;;;;;46.60;30.15;;;;;;;-1.43;81.84;98502.42;103073;1112;72279;-63
2021/01/30 07:58:52;;;;;;;46.70;28.67;;;;;;;-1.40;81.83;98501.30;103021;1110;84566;-65
2021/01/30 08:01:24;;;;;;;42.87;28.63;;;;;;;-1.36;81.69;98497.32;103063;1112;78728;-69
2021/01/30 08:04:12;;;;;;;44.83;29.40;;;;;;;-1.27;82.08;98496.37;103038;1112;64178;-69
2021/01/30 08:06:31;;;;;;;43.83;27.73;;;;;;;-1.25;81.90;98503.16;103013;1110;82884;-64
2021/01/30 08:08:44;;;;;;;48.27;31.40;;;;;;;-1.17;82.16;98506.81;103010;1106;71018;-64
2021/01/30 08:11:01;;;;;;;50.00;30.35;;;;;;;-1.11;82.04;98500.88;103019;1112;85929;-64
2021/01/30 08:13:29;;;;;;;48.10;30.75;;;;;;;-1.16;81.69;98500.53;103033;1110;78525;-65
2021/01/30 08:15:39;;;;;;;66.20;34.70;;;;;;;-1.06;81.87;98498.55;103043;1110;64185;-66
2021/01/30 08:18:01;;;;;;;51.53;31.87;;;;;;;-1.03;82.32;98508.83;103006;1110;82871;-66
2021/01/30 08:20:17;;;;;;;45.33;27.77;;;;;;;-1.01;82.16;98499.73;103057;1110;73217;-65
2021/01/30 08:22:33;;;;;;;43.00;28.20;;;;;;;-0.99;81.77;98499.58;103081;1110;84222;-65
2021/01/30 08:24:45;;;;;;;45.43;29.63;;;;;;;-1.02;82.00;98492.79;103048;1110;77555;-66
2021/01/30 08:26:59;;;;;;;43.83;27.70;;;;;;;-0.98;81.56;98498.56;103015;1110;64108;-67
2021/01/30 08:29:19;;;;;;;47.87;30.80;;;;;;;-0.92;81.81;98501.41;102988;1110;83128;-67
2021/01/30 08:31:42;;;;;;;43.07;28.13;;;;;;;-0.90;81.91;98498.58;103052;1110;70625;-64
2021/01/30 08:34:05;;;;;;;468.70;156.55;;;;;;;-0.82;82.17;98495.94;103034;1110;86191;-65
2021/01/30 08:36:36;;;;;;;148.50;62.30;;;;;;;-0.74;82.05;98493.30;103001;1110;78581;-64
2021/01/30 08:38:40;;;;;;;188.83;70.17;;;;;;;-0.68;81.70;98492.64;103006;1110;63702;-64
2021/01/30 08:40:52;;;;;;;185.90;72.35;;;;;;;-0.73;81.63;98493.14;103094;1110;83250;-65
2021/01/30 08:43:02;;;;;;;81.10;40.57;;;;;;;-0.77;81.59;98491.80;103029;1110;70931;-64
2021/01/30 08:45:11;;;;;;;119.03;54.47;;;;;;;-0.80;81.48;98499.28;103082;1110;85192;-65
2021/01/30 08:47:21;;;;;;;69.03;38.47;;;;;;;-0.83;81.74;98500.44;103047;1110;78722;-65
2021/01/30 08:49:27;;;;;;;357.20;123.67;;;;;;;-0.81;81.53;98498.44;103025;1109;64615;-63
2021/01/30 08:51:32;;;;;;;249.10;91.73;;;;;;;-0.75;81.55;98503.09;103056;1110;83390;-65
2021/01/30 08:53:36;;;;;;;98.87;47.07;;;;;;;-0.72;81.63;98502.77;103063;1110;71552;-63
2021/01/30 08:55:55;;;;;;;181.57;69.80;;;;;;;-0.71;81.65;98499.10;103070;1110;85969;-65
2021/01/30 08:58:01;;;;;;;471.77;179.60;;;;;;;-0.72;81.09;98494.81;103015;1110;78081;-63
2021/01/30 09:00:13;;;;;;;93.13;42.80;;;;;;;-0.71;81.29;98507.06;103047;1106;64242;-64
2021/01/30 09:02:51;;;;;;;197.90;80.87;;;;;;;-0.73;81.05;98505.56;103053;1112;81376;-64
2021/01/30 09:05:03;;;;;;;156.83;68.23;;;;;;;-0.75;81.47;98505.74;103047;1110;70669;-67
2021/01/30 09:07:08;;;;;;;101.37;46.20;;;;;;;-0.74;81.13;98495.94;103056;1110;84459;-65
2021/01/30 09:09:18;;;;;;;67.63;34.57;;;;;;;-0.74;81.15;98510.03;103040;1113;78509;-65
2021/01/30 09:11:44;;;;;;;114.83;50.67;;;;;;;-0.71;81.20;98506.22;103054;1112;64310;-63
2021/01/30 09:14:25;;;;;;;131.77;55.73;;;;;;;-0.66;81.08;98507.38;103025;1110;82880;-64
2021/01/30 09:16:45;;;;;;;47.50;25.95;;;;;;;-0.58;81.22;98513.70;102979;1112;71766;-64
2021/01/30 09:19:03;;;;;;;163.45;62.35;;;;;;;-0.54;80.89;98510.55;103057;1112;83922;-64
2021/01/30 09:21:15;;;;;;;137.70;54.40;;;;;;;-0.45;81.26;98508.73;103015;1112;79520;-64
2021/01/30 09:23:37;;;;;;;151.03;57.73;;;;;;;-0.39;81.01;98508.07;102990;1110;64137;-64
2021/01/30 09:25:56;;;;;;;107.20;45.77;;;;;;;-0.28;81.01;98521.00;103052;1106;82626;-66
2021/01/30 09:28:05;;;;;;;83.75;36.95;;;;;;;-0.23;80.55;98514.20;103000;1112;71190;-65
2021/01/30 09:30:31;;;;;;;49.73;26.03;;;;;;;-0.20;80.83;98523.64;103016;1112;85759;-64
2021/01/30 09:32:48;;;;;;;122.33;48.23;;;;;;;-0.13;80.47;98521.96;103004;1112;77925;-63
2021/01/30 09:34:59;;;;;;;100.97;43.00;;;;;;;-0.06;80.37;98526.45;103046;1109;64520;-67
2021/01/30 09:37:05;;;;;;;80.63;37.97;;;;;;;0.08;80.58;98521.45;103029;1110;82584;-65
2021/01/30 09:39:24;;;;;;;235.33;95.27;;;;;;;0.06;80.73;98516.29;103035;1112;71793;-65
2021/01/30 09:41:31;;;;;;;145.03;72.87;;;;;;;0.02;80.21;98525.61;103016;1112;84373;-65
2021/01/30 09:43:36;;;;;;;84.57;48.57;;;;;;;-0.03;80.39;98519.98;103008;1112;77544;-66
2021/01/30 09:45:51;;;;;;;69.60;38.00;;;;;;;-0.06;80.30;98521.15;103061;1109;64255;-65
2021/01/30 09:47:58;;;;;;;60.43;31.80;;;;;;;0.08;80.16;98516.98;103021;1112;84161;-65
2021/01/30 09:50:08;;;;;;;43.23;23.63;;;;;;;0.06;80.11;98528.73;103076;1110;72462;-68
2021/01/30 09:52:16;;;;;;;27.87;19.90;;;;;;;0.19;80.15;98526.41;103026;1109;85966;-68
2021/01/30 09:54:27;;;;;;;38.20;23.20;;;;;;;0.14;80.13;98523.44;103023;1112;77871;-65
2021/01/30 09:56:36;;;;;;;45.83;27.30;;;;;;;0.09;79.87;98523.92;102994;1112;64328;-65
2021/01/30 09:58:51;;;;;;;41.30;24.25;;;;;;;0.09;79.98;98517.78;103017;1110;82562;-65
2021/01/30 10:01:07;;;;;;;82.00;44.90;;;;;;;0.03;79.76;98524.59;103015;1110;72078;-67